Campbellton, Texas
Current Conditions -  °F | °C
As of 2:35 PM on Thursday 23 Oct 2014 (Local Time) from KPEZ Reporting Station
Clear Clear  
Wind Chill: 83°   Ceiling: Unl
Heat Index: 83°   Visibility: 10mi
Dew Point: 57°   Wind: 7mph
Humidity: 41%   Direction: 30°NNE
Pressure: 30.09"   Gusts: NA
Location:  28.75°N, 98.3°W
Report Text: KPEZ 231935Z AUTO 03006KT 10SM CLR 29/14 A3009 RMK AO2 T02850140
Loading
Personal Weather Stations






























Interactive Weather Map
Tropical Storm Tracking
New forecast layout! Learn more

10-Day Weather Forecast

Advertisements
Track Severe Weather on mobile